createdAt,value
2018-11-06T00:02:00.026Z,6.60
2018-11-06T00:04:34.155Z,6.60
2018-11-06T00:07:03.313Z,6.50
2018-11-06T00:09:32.106Z,6.50
2018-11-06T00:12:00.823Z,6.40
2018-11-06T00:14:29.661Z,6.40
2018-11-06T00:16:58.835Z,6.30
2018-11-06T00:19:27.605Z,6.30
2018-11-06T00:21:56.393Z,6.30
2018-11-06T00:24:25.522Z,6.30
2018-11-06T00:26:54.350Z,6.30
2018-11-06T00:29:23.167Z,6.40
2018-11-06T00:31:51.906Z,6.40
2018-11-06T00:34:20.875Z,6.50
2018-11-06T00:36:49.609Z,6.50
2018-11-06T00:39:18.306Z,6.60
2018-11-06T00:41:47.067Z,6.60
2018-11-06T00:44:15.843Z,6.60
2018-11-06T00:46:44.540Z,6.60
2018-11-06T00:49:13.373Z,6.70
2018-11-06T00:51:42.114Z,6.70
2018-11-06T00:54:10.957Z,6.80
2018-11-06T00:56:39.751Z,6.80
2018-11-06T00:59:09.168Z,6.80
2018-11-06T01:01:38.083Z,6.80
2018-11-06T01:04:08.584Z,6.90
2018-11-06T01:06:37.512Z,6.90
2018-11-06T01:09:09.759Z,6.90
2018-11-06T01:11:38.588Z,7.00
2018-11-06T01:14:07.737Z,7.00
2018-11-06T01:16:36.806Z,7.00
2018-11-06T01:19:06.127Z,7.00
2018-11-06T01:21:34.886Z,7.00
2018-11-06T01:24:03.756Z,7.00
2018-11-06T01:26:33.049Z,7.00
2018-11-06T01:29:01.989Z,7.00
2018-11-06T01:31:30.740Z,7.00
2018-11-06T01:33:59.541Z,7.00
2018-11-06T01:36:28.324Z,7.00
2018-11-06T01:38:57.075Z,7.10
2018-11-06T01:41:25.869Z,7.10
2018-11-06T01:43:54.601Z,7.10
2018-11-06T01:46:23.392Z,7.00
2018-11-06T01:48:52.117Z,7.00
2018-11-06T01:51:20.873Z,7.00
2018-11-06T01:53:49.758Z,6.90
2018-11-06T01:56:18.573Z,6.80
2018-11-06T01:58:47.413Z,6.70
2018-11-06T02:01:16.177Z,6.60
2018-11-06T02:03:44.988Z,6.60
2018-11-06T02:06:14.757Z,6.50
2018-11-06T02:08:43.742Z,6.40
2018-11-06T02:11:12.607Z,6.30
2018-11-06T02:13:41.439Z,6.20
2018-11-06T02:16:10.268Z,6.20
2018-11-06T02:18:41.065Z,6.10
2018-11-06T02:21:09.828Z,6.00
2018-11-06T02:23:38.604Z,6.00
2018-11-06T02:26:07.329Z,5.90
2018-11-06T02:28:36.131Z,5.90
2018-11-06T02:31:05.224Z,5.80
2018-11-06T02:33:33.950Z,5.70
2018-11-06T02:36:02.626Z,5.70
2018-11-06T02:38:31.350Z,5.60
2018-11-06T02:41:00.090Z,5.60
2018-11-06T02:43:28.803Z,5.50
2018-11-06T02:45:57.549Z,5.50
2018-11-06T02:48:26.464Z,5.40
2018-11-06T02:50:55.206Z,5.40
2018-11-06T02:53:23.926Z,5.40
2018-11-06T02:55:52.740Z,5.30
2018-11-06T02:58:22.406Z,5.30
2018-11-06T03:00:51.164Z,5.20
2018-11-06T03:03:19.836Z,5.20
2018-11-06T03:05:48.538Z,5.20
2018-11-06T03:08:17.286Z,5.20
2018-11-06T03:10:46.053Z,5.10
2018-11-06T03:13:14.830Z,5.10
2018-11-06T03:15:43.695Z,5.10
2018-11-06T03:18:12.442Z,5.10
2018-11-06T03:20:41.159Z,5.10
2018-11-06T03:23:09.943Z,5.10
2018-11-06T03:25:38.661Z,5.10
2018-11-06T03:28:07.427Z,5.10
2018-11-06T03:30:36.173Z,5.10
2018-11-06T03:33:04.956Z,5.00
2018-11-06T03:35:33.726Z,5.00
2018-11-06T03:38:02.466Z,5.00
2018-11-06T03:40:31.203Z,5.00
2018-11-06T03:42:59.984Z,5.00
2018-11-06T03:45:28.770Z,5.00
2018-11-06T03:47:57.452Z,5.00
2018-11-06T03:50:26.235Z,4.90
2018-11-06T03:52:55.014Z,4.90
2018-11-06T03:55:23.742Z,4.90
2018-11-06T03:57:52.452Z,4.90
2018-11-06T04:00:21.243Z,4.90
2018-11-06T04:02:49.970Z,4.90
2018-11-06T04:05:18.791Z,4.80
2018-11-06T04:07:47.525Z,4.80
2018-11-06T04:10:16.288Z,4.80
2018-11-06T04:12:44.964Z,4.90
2018-11-06T04:15:14.385Z,4.90
2018-11-06T04:17:44.039Z,4.90
2018-11-06T04:20:12.835Z,4.90
2018-11-06T04:22:42.118Z,5.00
2018-11-06T04:25:10.984Z,5.00
2018-11-06T04:27:39.711Z,5.00
2018-11-06T04:30:11.078Z,5.00
2018-11-06T04:32:40.413Z,5.00
2018-11-06T04:35:09.574Z,5.00
2018-11-06T04:37:38.955Z,5.00
2018-11-06T04:40:09.407Z,4.90
2018-11-06T04:42:38.349Z,5.00
2018-11-06T04:45:07.868Z,5.00
2018-11-06T04:47:36.666Z,4.90
2018-11-06T04:50:05.670Z,4.90
2018-11-06T04:52:34.444Z,4.90
2018-11-06T04:55:03.390Z,4.90
2018-11-06T04:57:32.112Z,4.90
2018-11-06T05:00:00.892Z,4.90
2018-11-06T05:02:29.704Z,4.90
2018-11-06T05:04:58.481Z,4.90
2018-11-06T05:07:27.226Z,4.90
2018-11-06T05:09:56.879Z,4.80
2018-11-06T05:12:25.897Z,4.80
2018-11-06T05:14:55.424Z,4.80
2018-11-06T05:17:25.311Z,4.80
2018-11-06T05:19:54.018Z,4.80
2018-11-06T05:22:22.906Z,4.80
2018-11-06T05:24:51.771Z,4.90
2018-11-06T05:27:20.628Z,4.90
2018-11-06T05:29:49.524Z,4.90
2018-11-06T05:32:18.238Z,4.90
2018-11-06T05:34:47.113Z,4.90
2018-11-06T05:37:15.707Z,4.90
2018-11-06T05:39:55.447Z,4.90
2018-11-06T05:42:24.125Z,4.90
2018-11-06T05:44:52.777Z,4.90
2018-11-06T05:47:21.430Z,4.90
2018-11-06T05:49:50.169Z,4.90
2018-11-06T05:52:19.144Z,4.90
2018-11-06T05:54:47.777Z,4.90
2018-11-06T05:57:16.482Z,4.90
2018-11-06T05:59:45.180Z,4.90
2018-11-06T06:02:13.822Z,4.90
2018-11-06T06:04:42.777Z,4.90
2018-11-06T06:07:11.428Z,4.90
2018-11-06T06:09:40.150Z,4.90
2018-11-06T06:12:08.861Z,4.90
2018-11-06T06:14:37.592Z,5.00
2018-11-06T06:17:06.868Z,5.00
2018-11-06T06:19:35.590Z,5.00
2018-11-06T06:22:04.540Z,5.00
2018-11-06T06:24:33.365Z,5.00
2018-11-06T06:27:02.086Z,5.00
2018-11-06T06:29:30.756Z,5.00
2018-11-06T06:31:59.467Z,5.00
2018-11-06T06:34:28.252Z,5.00
2018-11-06T06:36:57.057Z,5.10
2018-11-06T06:39:25.777Z,5.10
2018-11-06T06:41:55.500Z,5.10
2018-11-06T06:44:24.214Z,5.10
2018-11-06T06:46:52.835Z,5.10
2018-11-06T06:49:21.569Z,5.10
2018-11-06T06:51:50.268Z,5.10
2018-11-06T06:54:19.299Z,5.10
2018-11-06T06:56:47.908Z,5.10
2018-11-06T06:59:16.689Z,5.10
2018-11-06T07:01:45.422Z,5.20
2018-11-06T07:04:14.257Z,5.20
2018-11-06T07:06:42.960Z,5.20
2018-11-06T07:09:11.702Z,5.20
2018-11-06T07:11:40.474Z,5.30
2018-11-06T07:14:09.155Z,5.30
2018-11-06T07:16:37.841Z,5.30
2018-11-06T07:19:06.689Z,5.40
2018-11-06T07:21:35.404Z,5.40
2018-11-06T07:24:04.255Z,5.50
2018-11-06T07:26:33.753Z,5.60
2018-11-06T07:29:02.563Z,5.60
2018-11-06T07:31:31.467Z,5.70
2018-11-06T07:34:00.182Z,5.80
2018-11-06T07:36:29.032Z,6.00
2018-11-06T07:38:57.747Z,6.10
2018-11-06T07:41:26.530Z,6.20
2018-11-06T07:43:55.437Z,6.20
2018-11-06T07:46:24.150Z,6.30
2018-11-06T07:48:52.877Z,6.30
2018-11-06T07:51:21.619Z,6.50
2018-11-06T07:53:50.319Z,6.60
2018-11-06T07:56:19.029Z,6.70
2018-11-06T07:58:47.690Z,6.80
2018-11-06T08:01:16.344Z,6.90
2018-11-06T08:03:45.174Z,7.00
2018-11-06T08:06:13.964Z,7.00
2018-11-06T08:08:42.662Z,7.20
2018-11-06T08:11:11.370Z,7.30
2018-11-06T08:13:40.052Z,7.40
2018-11-06T08:16:08.742Z,7.40
2018-11-06T08:18:37.424Z,7.50
2018-11-06T08:21:06.069Z,7.60
2018-11-06T08:23:34.767Z,7.70
2018-11-06T08:26:03.391Z,7.70
2018-11-06T08:28:32.051Z,7.70
2018-11-06T08:31:01.168Z,7.70
2018-11-06T08:33:29.986Z,7.70
2018-11-06T08:35:58.635Z,7.70
2018-11-06T08:38:27.374Z,7.70
2018-11-06T08:40:56.078Z,7.70
2018-11-06T08:43:24.686Z,7.70
2018-11-06T08:45:53.293Z,7.80
2018-11-06T08:48:21.950Z,7.80
2018-11-06T08:50:50.684Z,7.90
2018-11-06T08:53:19.485Z,7.90
2018-11-06T08:55:48.108Z,8.00
2018-11-06T08:58:16.760Z,8.10
2018-11-06T09:00:45.435Z,8.20
2018-11-06T09:03:14.142Z,8.30
2018-11-06T09:05:42.792Z,8.40
2018-11-06T09:08:11.462Z,8.50
2018-11-06T09:10:40.146Z,8.60
2018-11-06T09:13:08.830Z,8.70
2018-11-06T09:15:37.513Z,8.80
2018-11-06T09:18:06.231Z,8.90
2018-11-06T09:20:34.884Z,9.00
2018-11-06T09:23:03.693Z,9.10
2018-11-06T09:25:32.361Z,9.20
2018-11-06T09:28:01.058Z,9.20
2018-11-06T09:30:29.704Z,9.30
2018-11-06T09:32:58.463Z,9.50
2018-11-06T09:35:27.152Z,9.50
2018-11-06T09:37:55.919Z,9.60
2018-11-06T09:40:24.597Z,9.70
2018-11-06T09:42:53.338Z,9.80
2018-11-06T09:45:22.156Z,9.90
2018-11-06T09:47:50.782Z,10.00
2018-11-06T09:50:19.942Z,10.10
2018-11-06T09:52:48.794Z,10.20
2018-11-06T09:55:18.093Z,10.30
2018-11-06T09:57:47.261Z,10.30
2018-11-06T10:00:18.408Z,10.40
2018-11-06T10:02:47.088Z,10.50
2018-11-06T10:05:16.085Z,10.60
2018-11-06T10:07:44.861Z,10.80
2018-11-06T10:10:15.205Z,10.90
2018-11-06T10:12:44.091Z,11.10
2018-11-06T10:15:14.580Z,11.20
2018-11-06T10:17:44.420Z,11.30
2018-11-06T10:20:13.926Z,11.50
2018-11-06T10:22:42.549Z,11.50
2018-11-06T10:25:11.387Z,11.60
2018-11-06T10:27:40.678Z,11.60
2018-11-06T10:30:13.297Z,11.70
2018-11-06T10:32:42.240Z,11.70
2018-11-06T10:35:11.247Z,11.80
2018-11-06T10:37:39.991Z,12.00
2018-11-06T10:40:10.916Z,12.10
2018-11-06T10:42:39.604Z,12.30
2018-11-06T10:45:08.822Z,12.50
2018-11-06T10:47:37.870Z,12.70
2018-11-06T10:50:07.321Z,12.90
2018-11-06T10:52:35.918Z,13.00
2018-11-06T10:55:05.054Z,13.10
2018-11-06T10:57:33.694Z,13.00
2018-11-06T11:00:02.353Z,13.00
2018-11-06T11:02:36.301Z,13.00
2018-11-06T11:05:05.369Z,13.10
2018-11-06T11:07:33.944Z,13.30
2018-11-06T11:10:02.667Z,13.50
2018-11-06T11:12:31.318Z,13.80
2018-11-06T11:15:00.051Z,14.00
2018-11-06T11:17:28.711Z,14.20
2018-11-06T11:19:57.437Z,14.40
2018-11-06T11:22:26.097Z,14.50
2018-11-06T11:24:54.794Z,14.60
2018-11-06T11:27:23.486Z,14.60
2018-11-06T11:29:52.109Z,14.70
2018-11-06T11:32:20.797Z,14.60
2018-11-06T11:34:49.436Z,14.80
2018-11-06T11:37:18.065Z,14.80
2018-11-06T11:39:46.791Z,14.90
2018-11-06T11:42:15.405Z,14.90
2018-11-06T11:44:44.060Z,14.90
2018-11-06T11:47:12.672Z,14.90
2018-11-06T11:49:41.296Z,15.00
2018-11-06T11:52:10.065Z,15.00
2018-11-06T11:54:38.779Z,15.10
2018-11-06T11:57:07.429Z,15.10
2018-11-06T11:59:36.112Z,15.10
2018-11-06T12:02:04.979Z,15.10
2018-11-06T12:04:33.688Z,15.20
2018-11-06T12:07:02.331Z,15.10
2018-11-06T12:09:30.933Z,15.10
2018-11-06T12:11:59.640Z,15.10
2018-11-06T12:14:28.277Z,15.00
2018-11-06T12:16:57.029Z,15.00
2018-11-06T12:19:25.697Z,14.90
2018-11-06T12:21:54.359Z,14.90
2018-11-06T12:24:23.000Z,14.90
2018-11-06T12:26:51.649Z,15.00
2018-11-06T12:29:20.569Z,15.00
2018-11-06T12:31:49.258Z,15.10
2018-11-06T12:34:17.927Z,15.10
2018-11-06T12:36:46.663Z,15.10
2018-11-06T12:39:15.277Z,15.20
2018-11-06T12:41:43.925Z,15.20
2018-11-06T12:44:12.581Z,15.30
2018-11-06T12:46:41.238Z,15.30
2018-11-06T12:49:09.859Z,15.30
2018-11-06T12:51:38.516Z,15.40
2018-11-06T12:54:07.174Z,15.40
2018-11-06T12:56:36.347Z,15.40
2018-11-06T12:59:05.157Z,15.40
2018-11-06T13:01:33.805Z,15.50
2018-11-06T13:04:02.547Z,15.60
2018-11-06T13:06:31.259Z,15.60
2018-11-06T13:08:59.946Z,15.60
2018-11-06T13:11:28.574Z,15.70
2018-11-06T13:13:57.247Z,15.60
2018-11-06T13:16:25.872Z,15.60
2018-11-06T13:18:54.501Z,15.60
2018-11-06T13:21:23.165Z,15.70
2018-11-06T13:23:51.817Z,15.70
2018-11-06T13:26:20.717Z,15.70
2018-11-06T13:28:49.245Z,15.80
2018-11-06T13:31:17.933Z,15.70
2018-11-06T13:33:46.580Z,15.70
2018-11-06T13:36:15.223Z,15.70
2018-11-06T13:38:43.858Z,15.60
2018-11-06T13:41:12.603Z,15.60
2018-11-06T13:43:41.569Z,15.60
2018-11-06T13:46:09.998Z,15.50
2018-11-06T13:48:38.656Z,15.40
2018-11-06T13:51:07.276Z,15.40
2018-11-06T13:53:35.930Z,15.30
2018-11-06T13:56:04.552Z,15.20
2018-11-06T13:58:33.198Z,15.10
2018-11-06T14:01:01.837Z,15.00
2018-11-06T14:03:30.500Z,15.00
2018-11-06T14:05:59.180Z,15.00
2018-11-06T14:08:27.821Z,15.00
2018-11-06T14:10:56.404Z,15.00
2018-11-06T14:13:25.028Z,15.00
2018-11-06T14:15:53.717Z,15.00
2018-11-06T14:18:22.343Z,15.10
2018-11-06T14:20:50.993Z,15.10
2018-11-06T14:23:19.991Z,15.20
2018-11-06T14:25:48.656Z,15.20
2018-11-06T14:28:17.349Z,15.10
2018-11-06T14:30:45.969Z,15.20
2018-11-06T14:33:14.616Z,15.20
2018-11-06T14:35:43.265Z,15.30
2018-11-06T14:38:11.940Z,15.40
2018-11-06T14:40:40.572Z,15.30
2018-11-06T14:43:09.410Z,15.30
2018-11-06T14:45:38.085Z,15.40
2018-11-06T14:48:06.836Z,15.40
2018-11-06T14:50:35.484Z,15.40
2018-11-06T14:53:04.118Z,15.30
2018-11-06T14:55:32.790Z,15.30
2018-11-06T14:58:01.451Z,15.20
2018-11-06T15:00:30.141Z,15.10
2018-11-06T15:02:58.770Z,14.90
2018-11-06T15:05:27.453Z,14.80
2018-11-06T15:07:56.109Z,14.70
2018-11-06T15:10:24.743Z,14.60
2018-11-06T15:12:53.364Z,14.50
2018-11-06T15:15:22.039Z,14.30
2018-11-06T15:17:50.676Z,14.20
2018-11-06T15:20:20.853Z,14.10
2018-11-06T15:22:49.502Z,14.00
2018-11-06T15:25:18.849Z,13.80
2018-11-06T15:27:47.513Z,13.60
2018-11-06T15:30:17.414Z,13.40
2018-11-06T15:32:46.048Z,13.30
2018-11-06T15:35:16.312Z,13.10
2018-11-06T15:37:44.899Z,13.00
2018-11-06T15:40:15.456Z,12.90
2018-11-06T15:42:44.326Z,12.80
2018-11-06T15:45:14.343Z,12.70
2018-11-06T15:47:43.730Z,12.50
2018-11-06T15:50:14.756Z,12.40
2018-11-06T15:52:44.291Z,12.30
2018-11-06T15:55:13.035Z,12.20
2018-11-06T15:57:41.683Z,12.10
2018-11-06T16:00:15.301Z,12.00
2018-11-06T16:02:44.436Z,11.90
2018-11-06T16:05:13.194Z,11.70
2018-11-06T16:07:42.042Z,11.70
2018-11-06T16:10:13.699Z,11.60
2018-11-06T16:12:42.907Z,11.50
2018-11-06T16:15:11.644Z,11.40
2018-11-06T16:17:40.328Z,11.30
2018-11-06T16:20:11.412Z,11.20
2018-11-06T16:22:40.110Z,11.20
2018-11-06T16:25:10.493Z,11.10
2018-11-06T16:27:39.577Z,11.00
2018-11-06T16:30:10.542Z,10.90
2018-11-06T16:32:39.277Z,10.90
2018-11-06T16:35:09.675Z,10.80
2018-11-06T16:37:38.752Z,10.70
2018-11-06T16:40:07.981Z,10.60
2018-11-06T16:42:36.755Z,10.60
2018-11-06T16:45:07.212Z,10.60
2018-11-06T16:47:35.869Z,10.50
2018-11-06T16:50:04.691Z,10.50
2018-11-06T16:52:33.370Z,10.40
2018-11-06T16:55:02.016Z,10.40
2018-11-06T16:57:30.705Z,10.20
2018-11-06T16:59:59.406Z,10.30
2018-11-06T17:02:28.018Z,10.30
2018-11-06T17:04:56.662Z,10.20
2018-11-06T17:07:25.303Z,10.20
2018-11-06T17:09:54.010Z,10.10
2018-11-06T17:12:22.648Z,10.10
2018-11-06T17:14:51.329Z,10.00
2018-11-06T17:17:20.039Z,10.00
2018-11-06T17:19:48.698Z,9.90
2018-11-06T17:22:17.417Z,9.90
2018-11-06T17:24:46.057Z,9.80
2018-11-06T17:27:14.712Z,9.70
2018-11-06T17:29:43.374Z,9.70
2018-11-06T17:32:12.178Z,9.70
2018-11-06T17:34:40.769Z,9.70
2018-11-06T17:37:09.369Z,9.60
2018-11-06T17:39:38.111Z,9.60
2018-11-06T17:42:06.972Z,9.60
2018-11-06T17:44:35.646Z,9.60
2018-11-06T17:47:04.253Z,9.60
2018-11-06T17:49:32.863Z,9.50
2018-11-06T17:52:01.551Z,9.50
2018-11-06T17:54:30.198Z,9.50
2018-11-06T17:56:58.872Z,9.60
2018-11-06T17:59:27.576Z,9.60
2018-11-06T18:01:56.228Z,9.60
2018-11-06T18:04:25.014Z,9.60
2018-11-06T18:06:53.618Z,9.50
2018-11-06T18:09:22.218Z,9.50
2018-11-06T18:12:02.428Z,9.60
2018-11-06T18:14:31.146Z,9.50
2018-11-06T18:16:59.914Z,9.50
2018-11-06T18:19:28.581Z,9.60
2018-11-06T18:21:57.215Z,9.70
2018-11-06T18:24:25.924Z,9.80
2018-11-06T18:26:54.544Z,9.80
2018-11-06T18:29:23.217Z,9.90
2018-11-06T18:31:51.922Z,9.80
2018-11-06T18:34:20.494Z,9.70
2018-11-06T18:36:49.187Z,9.60
2018-11-06T18:39:17.815Z,9.60
2018-11-06T18:41:46.499Z,9.60
2018-11-06T18:44:15.182Z,9.60
2018-11-06T18:46:43.842Z,9.60
2018-11-06T18:49:13.417Z,9.50
2018-11-06T18:51:42.091Z,9.50
2018-11-06T18:54:10.688Z,9.50
2018-11-06T18:56:39.285Z,9.50
2018-11-06T18:59:07.920Z,9.50
2018-11-06T19:01:36.568Z,9.50
2018-11-06T19:04:05.622Z,9.50
2018-11-06T19:06:34.265Z,9.60
2018-11-06T19:09:03.074Z,9.70
2018-11-06T19:11:31.710Z,9.80
2018-11-06T19:14:00.339Z,9.70
2018-11-06T19:16:29.057Z,9.70
2018-11-06T19:18:57.722Z,9.60
2018-11-06T19:21:26.394Z,9.70
2018-11-06T19:23:55.060Z,9.70
2018-11-06T19:26:23.664Z,9.70
2018-11-06T19:28:52.294Z,9.80
2018-11-06T19:31:21.070Z,9.90
2018-11-06T19:33:49.734Z,9.90
2018-11-06T19:36:18.451Z,9.90
2018-11-06T19:38:47.129Z,9.90
2018-11-06T19:41:15.946Z,10.00
2018-11-06T19:43:44.598Z,10.10
2018-11-06T19:46:13.213Z,10.20
2018-11-06T19:48:42.039Z,10.10
2018-11-06T19:51:10.604Z,10.10
2018-11-06T19:53:39.379Z,10.10
2018-11-06T19:56:08.037Z,10.10
2018-11-06T19:58:36.673Z,10.00
2018-11-06T20:01:05.399Z,9.90
2018-11-06T20:03:34.117Z,9.80
2018-11-06T20:06:02.839Z,9.70
2018-11-06T20:08:31.501Z,9.70
2018-11-06T20:11:01.317Z,9.60
2018-11-06T20:13:31.449Z,9.60
2018-11-06T20:16:01.339Z,9.50
2018-11-06T20:18:30.311Z,9.40
2018-11-06T20:20:58.942Z,9.30
2018-11-06T20:23:27.701Z,9.20
2018-11-06T20:25:56.330Z,9.10
2018-11-06T20:28:24.946Z,9.10
2018-11-06T20:30:53.613Z,9.00
2018-11-06T20:33:22.292Z,9.00
2018-11-06T20:35:51.006Z,9.00
2018-11-06T20:38:19.692Z,9.00
2018-11-06T20:40:48.337Z,8.90
2018-11-06T20:43:17.242Z,8.90
2018-11-06T20:45:45.932Z,8.90
2018-11-06T20:48:14.569Z,8.80
2018-11-06T20:50:43.228Z,8.80
2018-11-06T20:53:12.045Z,8.80
2018-11-06T20:55:40.823Z,8.80
2018-11-06T20:58:09.361Z,8.70
2018-11-06T21:00:38.122Z,8.70
2018-11-06T21:03:06.825Z,8.70
2018-11-06T21:05:35.546Z,8.70
2018-11-06T21:08:04.237Z,8.60
2018-11-06T21:10:32.915Z,8.60
2018-11-06T21:13:01.592Z,8.50
2018-11-06T21:15:30.320Z,8.50
2018-11-06T21:17:59.164Z,8.50
2018-11-06T21:20:27.683Z,8.50
2018-11-06T21:22:56.355Z,8.50
2018-11-06T21:25:25.225Z,8.50
2018-11-06T21:27:53.812Z,8.40
2018-11-06T21:30:23.454Z,8.40
2018-11-06T21:32:53.009Z,8.30
2018-11-06T21:35:21.692Z,8.30
2018-11-06T21:37:50.526Z,8.20
2018-11-06T21:40:20.560Z,8.20
2018-11-06T21:42:49.741Z,8.20
2018-11-06T21:45:18.757Z,8.10
2018-11-06T21:47:48.322Z,8.00
2018-11-06T21:50:17.396Z,8.00
2018-11-06T21:52:46.152Z,8.00
2018-11-06T21:55:16.039Z,7.90
2018-11-06T21:57:44.760Z,7.90
2018-11-06T22:00:15.531Z,7.90
2018-11-06T22:02:44.156Z,7.80
2018-11-06T22:05:14.044Z,7.80
2018-11-06T22:07:42.943Z,7.80
2018-11-06T22:10:15.778Z,7.70
2018-11-06T22:12:45.161Z,7.70
2018-11-06T22:15:14.980Z,7.70
2018-11-06T22:17:43.612Z,7.60
2018-11-06T22:20:14.567Z,7.60
2018-11-06T22:22:44.304Z,7.60
2018-11-06T22:25:13.003Z,7.60
2018-11-06T22:27:41.849Z,7.50
2018-11-06T22:30:11.744Z,7.50
2018-11-06T22:32:41.069Z,7.50
2018-11-06T22:35:11.229Z,7.50
2018-11-06T22:37:39.922Z,7.50
2018-11-06T22:40:09.286Z,7.50
2018-11-06T22:42:38.340Z,7.50
2018-11-06T22:45:09.794Z,7.50
2018-11-06T22:47:38.557Z,7.50
2018-11-06T22:50:08.782Z,7.50
2018-11-06T22:52:37.434Z,7.50
2018-11-06T22:55:06.272Z,7.50
2018-11-06T22:57:34.982Z,7.50
2018-11-06T23:00:03.874Z,7.50
2018-11-06T23:02:32.542Z,7.50
2018-11-06T23:05:01.131Z,7.50
2018-11-06T23:07:35.097Z,7.50
2018-11-06T23:10:03.719Z,7.50
2018-11-06T23:12:32.384Z,7.50
2018-11-06T23:15:01.057Z,7.50
2018-11-06T23:17:29.664Z,7.50
2018-11-06T23:19:58.294Z,7.50
2018-11-06T23:22:26.974Z,7.50
2018-11-06T23:24:55.693Z,7.50
2018-11-06T23:27:24.269Z,7.50
2018-11-06T23:29:53.004Z,7.50
2018-11-06T23:32:21.593Z,7.50
2018-11-06T23:34:50.229Z,7.50
2018-11-06T23:37:18.891Z,7.50
2018-11-06T23:39:47.542Z,7.50
2018-11-06T23:42:16.216Z,7.50
2018-11-06T23:44:44.911Z,7.50
2018-11-06T23:47:13.549Z,7.40
2018-11-06T23:49:42.270Z,7.50
2018-11-06T23:52:10.896Z,7.50
2018-11-06T23:54:39.526Z,7.50
2018-11-06T23:57:08.322Z,7.50
2018-11-06T23:59:36.938Z,7.50
